Time;durP1;ratioP1;P1;durP2;ratioP2;P2;SDS_P1;SDS_P2;PMS_P1;PMS_P2;Temp;Humidity;BMP_temperature;BMP_pressure;BME280_temperature;BME280_humidity;BME280_pressure;Samples;Min_cycle;Max_cycle;Signal;HPM_P1;HPM_P2
2022/05/06 00:00:24;;;;;;;16.50;10.13;;;;;;;10.63;100.00;98023.09;5041144;28;20056;-88
2022/05/06 00:02:51;;;;;;;14.75;9.73;;;;;;;10.68;100.00;98029.03;5057837;28;20094;-89
2022/05/06 00:05:17;;;;;;;16.70;9.77;;;;;;;10.60;100.00;98025.94;5040267;28;20036;-88
2022/05/06 00:07:43;;;;;;;15.38;9.98;;;;;;;10.51;100.00;98021.06;5055501;28;20028;-89
2022/05/06 00:10:09;;;;;;;13.32;9.82;;;;;;;10.51;100.00;98030.91;5056641;28;20051;-89
2022/05/06 00:12:35;;;;;;;15.07;9.60;;;;;;;10.37;100.00;98023.59;5053697;28;20032;-86
2022/05/06 00:15:01;;;;;;;14.82;10.10;;;;;;;10.51;100.00;98042.47;5056837;28;20033;-87
2022/05/06 00:17:27;;;;;;;17.52;9.70;;;;;;;10.37;100.00;98012.06;5040602;28;20044;-89
2022/05/06 00:19:52;;;;;;;15.68;10.35;;;;;;;10.45;100.00;98039.25;5041098;28;20032;-88
2022/05/06 00:22:18;;;;;;;13.88;9.55;;;;;;;10.34;100.00;98035.34;5043674;28;20025;-88
2022/05/06 00:24:50;;;;;;;14.95;10.82;;;;;;;10.39;100.00;98050.28;5040259;28;20124;-87
2022/05/06 00:27:17;;;;;;;16.27;11.80;;;;;;;10.27;100.00;98022.41;5052546;28;20476;-89
2022/05/06 00:29:42;;;;;;;17.90;11.25;;;;;;;10.30;100.00;98038.28;5058152;28;20135;-88
2022/05/06 00:32:08;;;;;;;16.80;10.55;;;;;;;10.19;100.00;98038.81;5041395;28;20032;-88
2022/05/06 00:34:34;;;;;;;14.07;9.45;;;;;;;10.10;100.00;98041.94;5038981;28;20040;-89
2022/05/06 00:37:03;;;;;;;18.35;10.63;;;;;;;10.18;100.00;98060.31;5053626;28;20029;-90
2022/05/06 00:39:32;;;;;;;14.30;10.38;;;;;;;10.13;100.00;98052.50;5058418;28;20136;-86
2022/05/06 00:42:01;;;;;;;18.65;10.63;;;;;;;10.20;100.00;98053.06;5060502;28;20032;-87
2022/05/06 00:44:27;;;;;;;16.33;10.70;;;;;;;10.11;100.00;98049.03;5059304;28;20053;-87
2022/05/06 00:46:55;;;;;;;17.25;10.48;;;;;;;10.19;100.00;98062.88;5043355;28;20032;-85
2022/05/06 01:00:45;;;;;;;16.50;10.80;;;;;;;10.11;100.00;98043.69;4949206;29;20459;-86
2022/05/06 01:03:22;;;;;;;17.42;10.93;;;;;;;9.98;100.00;98015.00;4963082;28;20463;-87
2022/05/06 01:05:51;;;;;;;16.42;10.90;;;;;;;9.97;100.00;98007.91;5040142;28;20035;-87
2022/05/06 01:08:17;;;;;;;18.60;11.43;;;;;;;9.95;100.00;98016.03;5040857;28;20102;-88
2022/05/06 01:10:43;;;;;;;15.23;10.65;;;;;;;10.04;100.00;98020.88;5055116;28;20500;-87
2022/05/06 01:13:09;;;;;;;16.38;11.10;;;;;;;10.14;100.00;98054.25;5038844;28;20067;-86
2022/05/06 01:15:35;;;;;;;16.88;11.07;;;;;;;9.76;100.00;98008.09;5059880;28;20028;-85
2022/05/06 01:18:01;;;;;;;17.25;11.00;;;;;;;9.73;100.00;98005.56;5038778;28;20033;-88
2022/05/06 01:20:27;;;;;;;17.45;10.65;;;;;;;9.78;100.00;98013.38;5054554;28;20040;-87
2022/05/06 01:23:00;;;;;;;16.13;10.75;;;;;;;9.78;100.00;98010.69;5055240;28;20412;-86
2022/05/06 01:25:27;;;;;;;15.75;10.70;;;;;;;9.97;100.00;98046.19;5053775;28;20053;-86
2022/05/06 01:28:05;;;;;;;13.50;10.52;;;;;;;9.90;100.00;98047.47;5037368;28;20119;-86
2022/05/06 01:30:36;;;;;;;15.80;10.30;;;;;;;9.92;100.00;98036.69;5038974;28;20492;-86
2022/05/06 01:33:07;;;;;;;15.32;9.98;;;;;;;9.92;100.00;98047.38;5040216;28;20029;-86
2022/05/06 01:35:44;;;;;;;16.60;10.40;;;;;;;9.87;100.00;98039.63;5058816;28;20082;-85
2022/05/06 01:38:12;;;;;;;18.33;10.70;;;;;;;9.65;100.00;98009.59;5073560;28;20036;-86
2022/05/06 01:40:47;;;;;;;15.50;9.73;;;;;;;9.75;100.00;98024.22;5058328;28;20028;-87
2022/05/06 01:43:14;;;;;;;16.15;10.32;;;;;;;9.92;100.00;98042.03;5055860;28;20036;-86
2022/05/06 01:45:42;;;;;;;15.00;10.20;;;;;;;9.82;100.00;98025.59;5057716;28;20088;-86
2022/05/06 01:48:08;;;;;;;18.02;10.32;;;;;;;9.89;100.00;98037.72;5040505;28;20033;-87
2022/05/06 01:50:37;;;;;;;16.38;10.82;;;;;;;9.91;100.00;98046.50;5058253;28;20032;-86
2022/05/06 01:53:02;;;;;;;16.20;10.10;;;;;;;9.80;100.00;98032.84;5056310;28;20387;-87
2022/05/06 01:55:28;;;;;;;16.45;10.38;;;;;;;9.86;100.00;98037.00;5057891;28;20116;-87
2022/05/06 01:57:54;;;;;;;15.23;10.77;;;;;;;9.79;100.00;98036.44;5040714;28;20120;-86
2022/05/06 02:00:19;;;;;;;14.55;10.05;;;;;;;9.81;100.00;98038.09;5041436;28;20057;-86
2022/05/06 02:02:46;;;;;;;13.85;10.18;;;;;;;9.75;100.00;98022.38;5056993;28;20017;-85
2022/05/06 02:05:17;;;;;;;16.00;10.98;;;;;;;9.81;100.00;98043.44;5040171;28;20112;-87
2022/05/06 02:07:52;;;;;;;15.95;10.73;;;;;;;9.75;100.00;98050.94;5058741;28;20044;-86
2022/05/06 02:10:25;;;;;;;15.88;11.02;;;;;;;9.63;100.00;98047.03;5058735;28;20035;-86
2022/05/06 02:19:47;;;;;;;20.40;11.18;;;;;;;9.69;100.00;98057.41;5055971;28;20047;-87
2022/05/06 02:22:13;;;;;;;17.23;11.40;;;;;;;9.54;100.00;98030.59;5057503;28;20187;-87
2022/05/06 02:24:39;;;;;;;16.05;10.30;;;;;;;9.57;100.00;98030.44;5039350;28;20056;-87
2022/05/06 02:27:04;;;;;;;15.18;11.32;;;;;;;9.58;100.00;98037.53;5055951;28;20029;-85
2022/05/06 02:29:30;;;;;;;16.40;10.27;;;;;;;9.47;100.00;98018.53;5056273;28;20067;-85
2022/05/06 02:34:42;;;;;;;18.90;10.65;;;;;;;9.45;100.00;98026.59;5058195;28;20523;-87
2022/05/06 02:37:08;;;;;;;16.08;10.73;;;;;;;9.52;100.00;98035.19;5040185;28;20471;-86
2022/05/06 02:39:34;;;;;;;18.40;11.40;;;;;;;9.50;100.00;98029.06;5040576;28;20044;-85
2022/05/06 02:41:59;;;;;;;18.00;11.40;;;;;;;9.52;100.00;98037.84;5056563;28;20028;-85
2022/05/06 02:44:25;;;;;;;23.67;12.20;;;;;;;9.53;100.00;98031.56;5039318;28;20037;-85
2022/05/06 02:46:51;;;;;;;19.58;12.18;;;;;;;9.62;100.00;98050.69;5039840;28;20057;-88
2022/05/06 02:49:16;;;;;;;19.00;12.90;;;;;;;9.62;100.00;98056.03;5058505;28;20024;-87
2022/05/06 02:51:42;;;;;;;22.73;12.18;;;;;;;9.50;100.00;98037.06;5040675;28;20164;-86
2022/05/06 02:54:08;;;;;;;19.13;10.80;;;;;;;9.41;100.00;98034.84;5040366;28;20024;-87
2022/05/06 02:56:33;;;;;;;17.58;10.27;;;;;;;9.34;100.00;98034.28;5041784;28;20029;-86
2022/05/06 02:58:59;;;;;;;18.80;10.95;;;;;;;9.31;100.00;98045.13;5041886;28;20032;-86
2022/05/06 03:01:25;;;;;;;14.90;10.90;;;;;;;9.43;100.00;98051.66;5041807;28;20456;-86
2022/05/06 03:03:51;;;;;;;22.85;12.77;;;;;;;9.32;100.00;98027.31;5058008;28;20065;-85
2022/05/06 03:06:18;;;;;;;20.60;12.48;;;;;;;9.27;100.00;98020.38;5057164;28;20023;-85
2022/05/06 03:08:43;;;;;;;19.08;12.23;;;;;;;9.46;100.00;98048.81;5056335;28;20020;-86
2022/05/06 03:11:09;;;;;;;22.10;15.05;;;;;;;9.39;100.00;98052.72;5040401;28;20048;-86
2022/05/06 03:13:35;;;;;;;25.25;15.80;;;;;;;9.41;100.00;98050.88;5040659;28;20049;-87
2022/05/06 03:16:01;;;;;;;28.45;14.93;;;;;;;9.49;100.00;98054.88;5057169;28;20025;-87
2022/05/06 03:25:25;;;;;;;26.00;14.85;;;;;;;9.21;100.00;98026.00;4918857;28;20073;-87
2022/05/06 03:28:01;;;;;;;23.15;14.82;;;;;;;9.27;100.00;98039.06;4960222;28;20435;-87
2022/05/06 03:30:28;;;;;;;22.27;13.38;;;;;;;9.50;100.00;98077.13;4975972;28;20094;-87
2022/05/06 03:32:55;;;;;;;23.27;14.27;;;;;;;9.49;100.00;98075.38;5041521;28;20028;-87
2022/05/06 03:35:21;;;;;;;33.38;16.48;;;;;;;9.54;100.00;98084.00;5039640;28;20411;-87
2022/05/06 03:37:47;;;;;;;51.92;22.77;;;;;;;9.52;100.00;98085.91;5039294;28;20052;-86
2022/05/06 03:40:13;;;;;;;86.85;35.20;;;;;;;9.40;100.00;98062.47;5055781;28;20025;-87
2022/05/06 03:42:38;;;;;;;118.57;48.65;;;;;;;9.39;100.00;98064.28;5057381;28;20029;-87
2022/05/06 03:45:06;;;;;;;49.28;25.38;;;;;;;9.39;100.00;98066.09;5040767;28;20059;-87
2022/05/06 03:47:32;;;;;;;32.47;19.05;;;;;;;9.63;100.00;98097.78;5058521;28;20107;-88
2022/05/06 03:52:41;;;;;;;27.30;16.15;;;;;;;9.51;100.00;98071.69;5056748;28;20028;-88
2022/05/06 03:55:07;;;;;;;20.02;12.55;;;;;;;9.59;100.00;98071.31;5037959;28;20493;-86
2022/05/06 03:57:33;;;;;;;20.48;12.80;;;;;;;9.78;100.00;98101.53;5055217;28;20047;-86
2022/05/06 04:03:34;;;;;;;28.05;15.35;;;;;;;9.55;100.00;98048.38;4978417;28;20553;-86
2022/05/06 04:06:00;;;;;;;31.15;16.70;;;;;;;9.84;100.00;98090.53;4976104;28;20423;-87
2022/05/06 04:08:26;;;;;;;26.52;15.80;;;;;;;9.92;100.00;98088.34;5046484;28;20044;-85
2022/05/06 04:10:52;;;;;;;28.88;13.15;;;;;;;9.98;100.00;98085.34;5038246;28;20033;-86
2022/05/06 04:24:09;;;;;;;17.70;12.32;;;;;;;10.31;100.00;98114.84;4925650;29;20068;-86
2022/05/06 04:26:35;;;;;;;24.33;13.57;;;;;;;10.17;100.00;98096.00;4914478;28;20136;-72
2022/05/06 04:29:01;;;;;;;25.65;13.45;;;;;;;10.24;100.00;98100.94;5032250;28;20451;-86
2022/05/06 04:31:40;;;;;;;25.50;13.43;;;;;;;10.27;100.00;98106.13;5055501;28;20024;-87
2022/05/06 04:34:07;;;;;;;23.75;14.38;;;;;;;10.32;100.00;98103.22;5037966;28;20120;-86
2022/05/06 04:36:33;;;;;;;24.88;14.82;;;;;;;10.52;100.00;98124.41;5054316;28;20029;-85
2022/05/06 04:38:59;;;;;;;27.70;16.13;;;;;;;10.58;100.00;98115.25;5053863;28;20159;-87
2022/05/06 04:41:24;;;;;;;43.72;18.05;;;;;;;10.68;100.00;98114.66;5037779;28;20036;-86
2022/05/06 04:43:50;;;;;;;27.70;17.45;;;;;;;10.69;100.00;98111.03;5054703;28;20028;-86
2022/05/06 04:46:16;;;;;;;28.35;17.08;;;;;;;10.81;100.00;98126.44;5054265;28;20021;-87
2022/05/06 04:48:42;;;;;;;28.42;17.60;;;;;;;10.77;100.00;98107.94;5055024;28;20057;-87
2022/05/06 04:51:08;;;;;;;26.52;16.13;;;;;;;10.89;100.00;98115.31;5039542;28;20029;-87
2022/05/06 04:53:33;;;;;;;29.25;16.80;;;;;;;10.85;100.00;98111.09;5054195;28;20033;-87
2022/05/06 04:55:59;;;;;;;26.65;14.75;;;;;;;11.03;100.00;98125.28;5036771;28;20037;-87
2022/05/06 04:58:25;;;;;;;22.65;13.68;;;;;;;11.23;100.00;98139.28;5036796;28;20067;-86
2022/05/06 05:00:50;;;;;;;30.75;14.35;;;;;;;11.18;100.00;98119.94;5036379;28;20037;-87
2022/05/06 05:03:18;;;;;;;23.75;15.90;;;;;;;11.34;100.00;98136.03;5036951;28;20039;-87
2022/05/06 05:05:44;;;;;;;23.40;13.68;;;;;;;11.35;100.00;98132.41;5036831;28;20052;-88
2022/05/06 05:08:12;;;;;;;24.00;13.27;;;;;;;11.22;100.00;98132.22;5051130;28;20021;-88
2022/05/06 05:10:38;;;;;;;26.00;15.57;;;;;;;11.18;100.00;98106.56;5035360;28;20553;-87
2022/05/06 05:13:03;;;;;;;22.75;14.05;;;;;;;11.27;100.00;98106.03;5068576;28;20109;-88
2022/05/06 05:15:30;;;;;;;23.95;14.10;;;;;;;11.44;100.00;98110.47;5052434;28;20071;-87
2022/05/06 05:17:55;;;;;;;21.10;13.15;;;;;;;11.80;100.00;98132.53;5050192;28;20037;-89
2022/05/06 05:30:47;;;;;;;25.35;14.98;;;;;;;12.44;100.00;98104.56;5051272;28;20169;-87
2022/05/06 05:33:14;;;;;;;23.88;15.20;;;;;;;12.83;100.00;98128.97;5070534;28;20064;-87
2022/05/06 05:39:11;;;;;;;26.15;15.73;;;;;;;13.16;97.25;98119.81;5055198;28;20047;-88
2022/05/06 05:41:38;;;;;;;22.83;15.07;;;;;;;13.41;96.81;98139.66;5048570;28;20490;-73
2022/05/06 05:49:48;;;;;;;26.00;16.10;;;;;;;13.99;91.27;98149.31;5044368;28;20094;-72
2022/05/06 05:52:15;;;;;;;25.58;15.13;;;;;;;14.35;90.07;98146.91;5049121;28;20396;-80
2022/05/06 05:54:40;;;;;;;39.00;21.08;;;;;;;14.51;88.50;98136.81;5037669;28;20039;-85
2022/05/06 05:57:07;;;;;;;39.15;17.42;;;;;;;14.54;87.84;98136.63;5051990;28;20480;-86
2022/05/06 06:03:06;;;;;;;58.17;37.65;;;;;;;14.74;85.81;98137.03;5059372;28;20056;-89
2022/05/06 06:05:32;;;;;;;75.65;43.50;;;;;;;14.77;88.25;98161.06;5051199;28;20013;-87
2022/05/06 06:07:58;;;;;;;52.22;34.70;;;;;;;14.58;89.27;98159.66;5035373;28;20037;-87
2022/05/06 06:10:23;;;;;;;52.83;33.67;;;;;;;14.71;89.28;98142.66;5039733;28;20033;-85
2022/05/06 06:12:49;;;;;;;56.92;31.77;;;;;;;14.93;87.78;98159.06;5052289;28;20020;-87
2022/05/06 06:15:15;;;;;;;43.70;27.85;;;;;;;15.10;85.32;98147.97;5036170;28;20029;-87
2022/05/06 06:17:41;;;;;;;41.85;27.90;;;;;;;15.15;85.07;98148.50;5038898;28;20033;-85
2022/05/06 06:20:39;;;;;;;;;;;;;;;;;;;;;
2022/05/06 06:23:30;;;;;;;31.95;20.77;;;;;;;15.05;84.54;98169.84;4965157;28;20128;-86
2022/05/06 06:25:59;;;;;;;39.25;19.38;;;;;;;14.82;86.04;98130.19;4965381;28;20023;-86
2022/05/06 06:28:51;;;;;;;26.20;18.38;;;;;;;14.68;84.71;98097.06;4961714;28;20151;-86
2022/05/06 06:31:19;;;;;;;38.17;21.70;;;;;;;15.12;84.52;98143.31;4979558;28;20050;-86
2022/05/06 06:34:09;;;;;;;38.05;19.38;;;;;;;15.62;82.81;98164.00;4979831;28;20484;-84
2022/05/06 06:36:36;;;;;;;38.17;18.92;;;;;;;15.54;81.61;98113.31;4961626;28;20039;-85
2022/05/06 06:39:02;;;;;;;37.38;22.50;;;;;;;15.78;80.53;98144.88;4976668;28;20102;-85
2022/05/06 06:41:52;;;;;;;41.00;23.52;;;;;;;15.82;80.10;98151.75;5010443;28;20554;-88
2022/05/06 06:44:18;;;;;;;33.40;20.92;;;;;;;15.91;79.03;98137.59;5049782;28;20029;-86
2022/05/06 06:46:44;;;;;;;29.42;19.52;;;;;;;15.77;79.77;98140.44;5059452;28;20036;-85
2022/05/06 06:49:10;;;;;;;31.48;20.80;;;;;;;16.10;80.16;98149.59;5055788;28;20024;-86
2022/05/06 06:51:37;;;;;;;38.17;23.52;;;;;;;16.39;78.13;98144.72;5040278;28;20087;-87
2022/05/06 06:57:21;;;;;;;38.00;25.42;;;;;;;16.52;78.91;98125.75;4966789;28;20074;-75
2022/05/06 06:59:46;;;;;;;40.92;26.38;;;;;;;16.74;77.64;98134.81;5033522;28;20049;-86
2022/05/06 07:02:12;;;;;;;45.00;26.27;;;;;;;16.60;78.87;98117.94;5033555;28;20503;-86
2022/05/06 07:04:37;;;;;;;43.20;27.45;;;;;;;17.18;76.26;98142.16;5009968;28;20041;-76
2022/05/06 07:12:31;;;;;;;36.00;24.80;;;;;;;18.00;70.13;98153.56;5016540;28;20563;-74
2022/05/06 07:14:57;;;;;;;39.83;25.58;;;;;;;18.42;68.28;98158.16;5009757;28;20041;-74
2022/05/06 07:17:23;;;;;;;26.33;19.05;;;;;;;19.84;63.47;98137.53;5013871;28;20042;-74
2022/05/06 07:19:48;;;;;;;22.25;14.82;;;;;;;20.03;58.53;98134.88;5014008;28;20116;-74
2022/05/06 07:22:14;;;;;;;20.92;15.45;;;;;;;19.93;60.36;98146.72;5013084;28;20037;-76
2022/05/06 07:24:40;;;;;;;23.60;14.43;;;;;;;20.47;57.30;98132.69;5013885;28;20029;-74
2022/05/06 07:27:07;;;;;;;21.65;13.77;;;;;;;20.30;56.94;98133.41;5017993;28;20060;-74
2022/05/06 07:29:33;;;;;;;24.80;13.93;;;;;;;21.35;54.62;98133.31;5051356;28;20102;-86
2022/05/06 07:31:59;;;;;;;22.35;14.15;;;;;;;20.67;55.02;98115.38;5052948;28;20044;-85
2022/05/06 07:34:25;;;;;;;20.73;14.43;;;;;;;19.85;56.08;98106.66;5037184;28;20401;-86
2022/05/06 07:36:50;;;;;;;22.58;12.00;;;;;;;20.08;57.47;98120.88;5056474;28;20112;-86
2022/05/06 07:39:17;;;;;;;17.02;12.40;;;;;;;20.67;54.99;98122.69;5054765;28;20119;-86
2022/05/06 07:41:43;;;;;;;16.73;11.20;;;;;;;21.12;52.89;98110.19;5053674;28;20544;-85
2022/05/06 07:44:08;;;;;;;14.68;11.13;;;;;;;21.53;52.63;98109.75;5053478;28;20129;-83
2022/05/06 07:46:35;;;;;;;23.10;12.88;;;;;;;21.71;51.38;98117.16;5036871;28;20056;-84
2022/05/06 07:49:02;;;;;;;25.02;15.20;;;;;;;21.20;52.49;98112.16;5054050;28;20087;-85
2022/05/06 07:51:31;;;;;;;46.10;24.20;;;;;;;21.37;52.04;98119.56;5036034;28;20025;-85
2022/05/06 07:53:57;;;;;;;41.88;26.00;;;;;;;20.74;54.18;98137.41;5052749;28;20033;-85
2022/05/06 07:56:24;;;;;;;44.42;27.80;;;;;;;20.31;55.52;98148.69;5035687;28;20028;-86
2022/05/06 07:58:51;;;;;;;34.10;22.63;;;;;;;20.32;55.76;98134.09;5052821;28;20028;-86
2022/05/06 08:01:17;;;;;;;35.65;20.95;;;;;;;20.18;56.93;98137.19;5036642;28;20033;-86
2022/05/06 08:06:26;;;;;;;37.95;21.17;;;;;;;19.56;57.44;98148.28;5033179;28;20514;-85
2022/05/06 08:08:52;;;;;;;26.75;18.90;;;;;;;19.63;57.78;98152.16;5062056;28;20030;-85
2022/05/06 08:11:18;;;;;;;25.77;18.52;;;;;;;19.48;57.67;98152.53;5071004;28;20098;-85
2022/05/06 08:13:44;;;;;;;34.42;20.77;;;;;;;19.38;59.09;98158.88;5054322;28;20029;-85
2022/05/06 08:16:10;;;;;;;43.40;24.08;;;;;;;19.79;57.96;98142.53;5054314;28;20025;-84
2022/05/06 08:18:37;;;;;;;23.15;17.10;;;;;;;19.69;57.08;98148.91;5040767;28;20028;-84
2022/05/06 08:21:03;;;;;;;18.58;14.32;;;;;;;20.10;56.16;98145.19;5054043;28;20038;-86
2022/05/06 08:23:29;;;;;;;36.03;16.70;;;;;;;20.76;54.16;98141.72;5054040;28;20033;-86
2022/05/06 08:25:54;;;;;;;25.98;13.60;;;;;;;20.95;53.01;98130.78;5054666;28;20048;-86
2022/05/06 08:28:21;;;;;;;17.40;11.00;;;;;;;21.36;51.49;98117.84;5055339;28;20047;-86
2022/05/06 08:30:50;;;;;;;15.02;10.43;;;;;;;21.54;50.31;98124.22;5055173;28;20053;-84
2022/05/06 08:33:16;;;;;;;26.27;14.55;;;;;;;21.60;50.36;98104.56;5053797;28;20032;-84
2022/05/06 08:35:42;;;;;;;20.95;14.65;;;;;;;22.15;49.14;98113.63;5038023;28;20484;-83
2022/05/06 08:38:08;;;;;;;19.35;12.25;;;;;;;21.92;49.44;98118.66;5055623;28;20067;-84
2022/05/06 08:40:38;;;;;;;23.23;11.57;;;;;;;22.35;48.82;98108.91;5037928;28;20037;-84
2022/05/06 08:43:04;;;;;;;18.25;14.15;;;;;;;23.19;46.63;98097.38;5048756;28;20029;-84
2022/05/06 08:51:01;;;;;;;16.20;10.98;;;;;;;23.08;46.47;98097.66;5052858;28;20466;-85
2022/05/06 08:53:30;;;;;;;13.38;10.10;;;;;;;22.97;46.48;98108.84;5051855;28;20028;-83
2022/05/06 08:55:58;;;;;;;16.45;10.13;;;;;;;23.21;46.42;98114.47;5052725;28;20426;-82
2022/05/06 08:58:24;;;;;;;14.25;10.63;;;;;;;23.51;45.21;98112.28;5052087;28;20033;-83
2022/05/06 09:00:51;;;;;;;12.73;10.60;;;;;;;24.34;43.82;98097.81;5036584;28;20033;-83
2022/05/06 09:03:17;;;;;;;23.55;12.60;;;;;;;24.44;43.67;98094.91;5052433;28;20507;-82
2022/05/06 09:05:54;;;;;;;22.70;12.40;;;;;;;24.75;42.60;98087.78;5035691;28;20048;-82
2022/05/06 09:08:21;;;;;;;17.88;11.13;;;;;;;25.16;42.58;98091.41;5052758;28;20036;-83
2022/05/06 09:11:04;;;;;;;14.27;11.35;;;;;;;26.01;40.65;98082.44;5053074;28;20462;-83
2022/05/06 09:13:48;;;;;;;17.48;11.63;;;;;;;26.00;40.15;98079.84;5053679;28;20055;-83
2022/05/06 09:16:40;;;;;;;18.80;12.27;;;;;;;26.23;40.21;98089.91;5069787;28;20063;-84
2022/05/06 09:19:27;;;;;;;20.43;12.33;;;;;;;26.44;39.99;98092.00;5037834;28;20102;-85
2022/05/06 09:22:08;;;;;;;21.80;12.15;;;;;;;25.87;40.46;98083.19;5053808;28;20786;-85
2022/05/06 09:24:35;;;;;;;16.30;12.02;;;;;;;24.95;42.38;98088.34;5035148;28;20425;-81
2022/05/06 09:27:02;;;;;;;25.05;11.43;;;;;;;25.40;42.10;98085.00;5051939;28;20052;-84
2022/05/06 09:29:28;;;;;;;18.27;11.57;;;;;;;25.16;42.61;98084.00;5051696;28;20528;-84
2022/05/06 09:31:54;;;;;;;17.17;11.90;;;;;;;24.10;43.73;98084.91;5050824;28;20092;-85
2022/05/06 09:34:26;;;;;;;16.63;11.98;;;;;;;24.10;44.32;98073.97;5020228;28;20033;-86
2022/05/06 09:36:52;;;;;;;50.28;32.97;;;;;;;24.40;43.93;98082.59;5035764;28;20174;-86
2022/05/06 09:39:21;;;;;;;18.10;11.65;;;;;;;24.98;42.56;98077.03;5032716;28;20532;-86
2022/05/06 09:41:48;;;;;;;19.90;13.52;;;;;;;25.12;42.29;98074.44;5036808;28;20029;-88
2022/05/06 09:44:22;;;;;;;24.65;11.98;;;;;;;25.07;43.10;98073.28;5057472;28;20033;-87
2022/05/06 09:47:11;;;;;;;22.63;12.48;;;;;;;25.36;42.60;98068.06;5061634;28;20024;-84
2022/05/06 09:49:43;;;;;;;17.50;12.73;;;;;;;24.50;43.51;98083.31;5051860;28;20072;-86
2022/05/06 09:52:12;;;;;;;20.10;13.80;;;;;;;24.38;44.33;98080.03;5035814;28;20071;-86
2022/05/06 09:54:42;;;;;;;21.55;14.95;;;;;;;23.86;45.38;98090.28;5039046;28;20047;-85
2022/05/06 09:57:11;;;;;;;25.13;13.63;;;;;;;24.41;44.74;98074.25;5056181;28;20048;-86
2022/05/06 09:59:37;;;;;;;22.98;14.13;;;;;;;24.63;45.04;98067.25;5056917;28;20033;-87
2022/05/06 10:02:08;;;;;;;22.90;14.05;;;;;;;25.05;43.49;98067.09;5057248;28;20021;-87
2022/05/06 10:04:35;;;;;;;22.00;13.32;;;;;;;25.07;43.54;98054.94;5022685;28;20493;-86
2022/05/06 10:07:02;;;;;;;49.42;34.00;;;;;;;25.40;42.87;98054.88;5055399;28;20219;-84
2022/05/06 10:09:34;;;;;;;14.52;11.85;;;;;;;25.96;42.48;98051.97;5039785;28;20021;-84
2022/05/06 10:12:04;;;;;;;14.80;9.73;;;;;;;25.80;41.91;98057.50;5040575;28;20033;-84
2022/05/06 10:14:31;;;;;;;14.15;9.07;;;;;;;25.75;42.45;98058.03;5041069;28;20075;-86
2022/05/06 10:16:57;;;;;;;20.67;9.65;;;;;;;27.14;40.60;98043.22;5057187;28;20085;-85
2022/05/06 10:19:28;;;;;;;11.15;8.38;;;;;;;28.17;38.43;98046.88;5040749;28;20029;-85
2022/05/06 10:21:58;;;;;;;13.88;9.18;;;;;;;28.66;37.35;98040.66;5057837;28;20201;-87
2022/05/06 10:24:23;;;;;;;9.88;7.53;;;;;;;27.47;38.29;98038.28;5039809;28;20040;-86
2022/05/06 10:26:51;;;;;;;9.20;5.25;;;;;;;27.61;37.24;98025.56;5039395;28;20029;-85
2022/05/06 10:34:55;;;;;;;6.13;4.57;;;;;;;28.57;33.98;98003.25;5055670;28;20116;-86
2022/05/06 10:37:22;;;;;;;5.68;4.35;;;;;;;30.10;31.97;97997.56;5072270;28;20025;-86
2022/05/06 10:39:48;;;;;;;6.25;4.63;;;;;;;29.12;34.45;98003.34;5056439;28;20033;-86
2022/05/06 10:42:17;;;;;;;9.80;4.75;;;;;;;29.98;32.99;97990.94;5039257;28;20044;-85
2022/05/06 10:44:49;;;;;;;5.88;4.80;;;;;;;29.06;32.85;98004.13;5070590;28;20048;-86
2022/05/06 10:47:15;;;;;;;;;;;;;;;28.96;32.88;98004.50;5047301;28;20475;-85
2022/05/06 10:49:43;;;;;;;8.43;5.07;;;;;;;29.44;31.87;97991.69;5055361;28;19966;-86
2022/05/06 10:54:59;;;;;;;6.15;4.13;;;;;;;28.71;31.40;97988.56;5056847;28;20439;-86
2022/05/06 10:57:27;;;;;;;9.85;4.75;;;;;;;28.31;31.05;97971.66;5048003;28;20021;-86
2022/05/06 10:59:55;;;;;;;4.57;3.92;;;;;;;27.72;31.29;97976.44;5039341;28;20501;-85
2022/05/06 11:02:22;;;;;;;4.15;3.70;;;;;;;27.95;31.38;97949.66;5072731;28;20485;-86
2022/05/06 11:05:01;;;;;;;4.85;3.80;;;;;;;28.24;31.18;97959.72;5036435;28;20511;-87
2022/05/06 11:07:29;;;;;;;6.80;3.70;;;;;;;28.65;30.20;97956.31;5072351;28;20483;-86
2022/05/06 11:09:55;;;;;;;10.85;4.68;;;;;;;28.67;31.34;97955.06;5039670;28;20139;-87
2022/05/06 11:12:30;;;;;;;5.75;3.80;;;;;;;28.94;29.75;97945.97;5054649;28;20068;-85
2022/05/06 11:15:01;;;;;;;8.40;2.95;;;;;;;29.20;29.78;97960.97;5055251;28;20436;-88
2022/05/06 11:17:27;;;;;;;4.28;3.38;;;;;;;29.27;28.36;97923.31;5039033;28;20033;-86
2022/05/06 11:19:54;;;;;;;4.97;3.67;;;;;;;28.04;29.61;97922.88;5054622;28;20029;-85
2022/05/06 11:22:23;;;;;;;4.47;3.22;;;;;;;27.89;30.25;97922.94;5038445;28;20112;-85
2022/05/06 11:24:54;;;;;;;10.88;3.53;;;;;;;27.83;29.63;97926.44;5055011;28;20028;-86
2022/05/06 11:27:20;;;;;;;4.28;3.40;;;;;;;28.15;30.17;97944.38;5055038;28;20025;-87
2022/05/06 11:29:50;;;;;;;4.88;3.30;;;;;;;28.77;29.89;97943.72;5054016;28;20092;-85
2022/05/06 11:32:16;;;;;;;4.43;3.28;;;;;;;28.90;30.09;97938.31;5038265;28;20056;-85
2022/05/06 11:34:52;;;;;;;5.40;3.55;;;;;;;29.13;29.28;97916.88;5054585;28;20128;-85
2022/05/06 11:37:25;;;;;;;5.43;3.40;;;;;;;29.10;28.64;97927.44;5039644;28;20056;-86
2022/05/06 11:39:52;;;;;;;4.25;3.80;;;;;;;28.66;29.39;97900.19;5054668;28;20057;-85
2022/05/06 11:42:24;;;;;;;4.70;3.80;;;;;;;29.91;28.26;97901.75;5036422;28;20385;-86
2022/05/06 11:47:44;;;;;;;5.60;3.65;;;;;;;30.64;27.05;97896.13;5053649;28;20099;-85
2022/05/06 11:50:10;;;;;;;3.80;3.08;;;;;;;30.69;27.02;97914.00;5052605;28;20043;-84
2022/05/06 11:52:39;;;;;;;5.35;3.60;;;;;;;30.56;26.45;97909.31;5052938;28;20112;-87
2022/05/06 11:55:06;;;;;;;4.00;3.40;;;;;;;31.06;26.53;97918.88;5040906;28;20064;-84
2022/05/06 11:57:35;;;;;;;5.88;3.22;;;;;;;31.28;25.63;97906.50;5035899;28;20040;-85
2022/05/06 12:00:04;;;;;;;6.78;3.20;;;;;;;32.48;24.74;97894.63;5052731;28;20052;-85
2022/05/06 12:02:29;;;;;;;4.10;3.47;;;;;;;32.45;24.72;97900.63;5036259;28;20459;-87
2022/05/06 12:04:55;;;;;;;4.55;3.80;;;;;;;31.20;25.22;97873.53;5052424;28;20043;-85
2022/05/06 12:07:21;;;;;;;251.27;106.35;;;;;;;31.94;24.76;97873.03;5036003;28;20060;-86
2022/05/06 12:09:47;;;;;;;5.75;4.20;;;;;;;31.85;24.46;97866.06;5036391;28;20476;-86
2022/05/06 12:12:13;;;;;;;75.65;36.85;;;;;;;31.29;25.00;97879.69;5052620;28;20025;-85
2022/05/06 12:14:39;;;;;;;10.13;6.38;;;;;;;30.72;25.50;97886.78;5035856;28;20641;-85
2022/05/06 12:17:09;;;;;;;8.93;6.50;;;;;;;30.29;25.75;97880.81;5035711;28;20037;-85
2022/05/06 12:19:37;;;;;;;5.85;3.80;;;;;;;30.14;26.27;97855.31;5035795;28;20416;-85
2022/05/06 12:22:07;;;;;;;7.78;3.70;;;;;;;30.59;26.46;97887.66;5035958;28;20119;-86
2022/05/06 12:24:42;;;;;;;5.82;3.90;;;;;;;29.66;27.16;97859.19;5068766;28;20044;-85
2022/05/06 12:27:08;;;;;;;6.50;3.80;;;;;;;29.32;27.15;97874.78;5069168;28;20021;-85
2022/05/06 12:29:38;;;;;;;11.65;3.78;;;;;;;28.87;27.29;97873.44;5035973;28;20052;-87
2022/05/06 12:32:04;;;;;;;4.57;3.97;;;;;;;28.20;28.17;97872.25;5052450;28;20025;-85
2022/05/06 12:34:31;;;;;;;4.00;3.60;;;;;;;28.11;28.73;97866.03;5052477;28;20102;-85
2022/05/06 12:37:13;;;;;;;5.15;3.60;;;;;;;28.83;27.73;97868.53;5036079;28;20029;-85
2022/05/06 12:39:44;;;;;;;;;;;;;;;29.77;27.40;97865.00;5046017;28;20025;-86
2022/05/06 12:42:18;;;;;;;7.50;3.90;;;;;;;29.70;27.50;97846.72;5052659;28;19909;-86
2022/05/06 12:44:45;;;;;;;8.82;4.55;;;;;;;29.87;27.08;97828.75;5052550;28;20412;-85
2022/05/06 12:47:13;;;;;;;6.72;4.53;;;;;;;29.49;27.74;97840.28;5051947;28;20535;-85
2022/05/06 12:49:39;;;;;;;7.20;3.83;;;;;;;29.15;27.57;97837.56;5034950;28;20033;-87
2022/05/06 12:52:06;;;;;;;29.30;20.55;;;;;;;29.43;27.65;97852.16;5051908;28;20036;-86
2022/05/06 12:54:33;;;;;;;8.30;4.60;;;;;;;30.17;26.57;97838.34;5034557;28;20040;-88
2022/05/06 12:56:58;;;;;;;4.72;3.50;;;;;;;30.52;25.69;97830.69;5052071;28;20028;-85
2022/05/06 12:59:26;;;;;;;4.82;3.53;;;;;;;30.58;26.39;97819.66;5050351;28;20039;-88
2022/05/06 13:01:52;;;;;;;6.20;3.50;;;;;;;30.37;26.65;97830.03;5052289;28;20428;-86